Aviation Digital Data Service (ADDS)

Output produced by METARs form (2216 UTC 10 December 2016)
found at http://aviationweather.gov/adds/metars/
 
KDUJ 101744Z 1018/1118 25012KT 3SM -SHSN BKN025 
     TEMPO 1018/1021 1 1/2SM -SHSN 
     FM102300 24006KT P6SM BKN090 
     FM110900 19005KT 3SM -SN OVC015 
     FM111100 18005KT 2SM -SN OVC008